createdAt,value
2018-03-16T00:00:29.520Z,2.72
2018-03-16T00:06:20.208Z,2.8
2018-03-16T00:12:10.925Z,2.42
2018-03-16T00:18:01.604Z,4.3
2018-03-16T00:23:52.292Z,3.33
2018-03-16T00:29:42.977Z,2.57
2018-03-16T00:35:33.644Z,5.37
2018-03-16T00:41:24.357Z,5.25
2018-03-16T00:47:15.046Z,9.9
2018-03-16T00:53:05.748Z,8.86
2018-03-16T00:58:56.457Z,8.41
2018-03-16T01:04:47.169Z,11.4
2018-03-16T01:10:37.824Z,8.76
2018-03-16T01:16:28.492Z,9.76
2018-03-16T01:22:19.163Z,9.86
2018-03-16T01:28:09.859Z,10.96
2018-03-16T01:34:00.520Z,10.63
2018-03-16T01:39:51.240Z,12.31
2018-03-16T01:45:41.918Z,9.58
2018-03-16T01:51:32.646Z,11.46
2018-03-16T01:57:23.281Z,13.76
2018-03-16T02:03:14.068Z,13.5
2018-03-16T02:09:04.700Z,11.46
2018-03-16T02:14:55.360Z,9.7
2018-03-16T02:20:46.091Z,9.26
2018-03-16T02:26:36.752Z,9.29
2018-03-16T02:32:27.486Z,8.94
2018-03-16T02:38:18.168Z,6.22
2018-03-16T02:44:08.815Z,7.36
2018-03-16T02:49:59.500Z,8.94
2018-03-16T02:55:50.182Z,6.2
2018-03-16T03:01:40.876Z,6.87
2018-03-16T03:07:31.549Z,6.96
2018-03-16T03:13:22.225Z,5.49
2018-03-16T03:19:12.897Z,6.76
2018-03-16T03:25:03.604Z,3.94
2018-03-16T03:30:54.270Z,7.24
2018-03-16T03:36:44.932Z,5.3
2018-03-16T03:42:35.621Z,4.5
2018-03-16T03:48:26.356Z,6.47
2018-03-16T03:54:16.973Z,8.61
2018-03-16T04:00:07.719Z,6.02
